Newcomb, New York
Current Conditions -  °F | °C
As of 2:51 AM on Sunday 26 Oct 2014 (Local Time) from KSLK Reporting Station
Overcast Overcast  
Wind Chill: 43°   Ceiling: 5000
Heat Index: 43°   Visibility: 10mi
Dew Point: 40°   Wind: 3mph
Humidity: 89%   Direction: NA
Pressure: 29.43"   Gusts: NA
Location:  43.97°N, 74.16°W
Report Text: KSLK 260651Z AUTO VRB03KT 10SM FEW015 BKN050 OVC060 06/04 A2943 RMK AO2 SLP971 T00610044
Loading
Personal Weather Stations






























Interactive Weather Map
Tropical Storm Tracking
New forecast layout! Learn more

10-Day Weather Forecast

Advertisements
Track Severe Weather on mobile